Airfield :
LOGIN :

Register | Disclaimer

   EN    FR    IT 

 










Legend :    VFR   Marginal VFR   IFR   Intensive IFR   Very Intensive IFR
Visi :
Ceiling :
>= 8 km
>= 3000ft
5 to 8 km
1000 to 3000 ft
1500m to 5 km
500 to 1000 ft
800 to 1500m
200 to 500 ft
< 800m
< 200 ft
Symbols :   Thunderstorms  Fog  Heavy snow  Heavy precipitations  Wind > 20 kt
SIGMETs :     Misc.  Thunderstorms  Icing  Turbulence  Mountain Waves  Volcanic Ashes






- Airport Elevation : 119 ft
- IATA code : WAT


EIWF - Waterford

CURRENT METAR :
  • 271800Z 28008KT 240V320 9999 FEW010 SCT020CB SCT040 05/04 Q0988 R21/1/////

EXPIRED METARs :
  • 271730Z 26008KT 220V320 9999 VCSH FEW010 SCT020CB BKN120 06/04 Q0988 R21/1/////
  • 271700Z 25011KT 220V280 9999 FEW010 SCT020CB BKN120 05/03 Q0989 R21/2/////
  • 271630Z 26007KT 220V290 9999 FEW010 SCT020CB BKN120 05/04 Q0989 R21/2/////
  • 271600Z 26007KT 220V300 9999 FEW012 SCT020CB SCT035 05/04 Q0989 R21/2/////
  • 271530Z 26005KT 230V300 9999 FEW015 SCT021CB SCT035 05/04 Q0990 R21/2/////
  • 271500Z 24008KT 220V280 9999 VCSH FEW005 SCT025CB SCT035 05/04 Q0990 R21/2/////

TAF TAF EIWF
Valid from the 27 at 18:00 until the 28 at 03:00 UTC


271700Z 2718/2803 26009KT 9999 FEW009 SCT020
TEMPO 2718/2721 4000 SHRASNGS BKN010 BKN018CB
ATIS : +353 51 877 000



MET'MAP, your aeronautical weather chart ! - Copyright ORBIFLY December 2007 - Disclaimer

ORBIFLY MET'MAP TEAM :

Programming & Development : Alexandra Zaïnal
Concept & original design : Baudouin d'Aumeries
Assistance for programming : Marc-Olivier Méhu
Technical & hardware support : Manuel Goepfert

Contact : metmap@orbifly.com




SOURCES & CREDITS :

   NOAA